Time;durP1;ratioP1;P1;durP2;ratioP2;P2;SDS_P1;SDS_P2;PMS_P1;PMS_P2;Temp;Humidity;BMP_temperature;BMP_pressure;BME280_temperature;BME280_humidity;BME280_pressure;Samples;Min_cycle;Max_cycle;Signal;HPM_P1;HPM_P2
2023/03/25 00:01:32;;;;;;;3.97;1.47;;;13.90;65.90;;;;;;5060781;28;20856;-87
2023/03/25 00:04:00;;;;;;;2.20;1.43;;;13.90;66.10;;;;;;5045286;28;20471;-88
2023/03/25 00:06:28;;;;;;;3.20;1.50;;;14.00;65.80;;;;;;5039859;28;20532;-89
2023/03/25 00:08:55;;;;;;;4.90;1.60;;;14.10;65.00;;;;;;5041531;28;20465;-90
2023/03/25 00:11:24;;;;;;;1.70;1.43;;;14.10;65.60;;;;;;5040400;28;20479;-90
2023/03/25 00:13:52;;;;;;;4.20;1.87;;;14.20;64.70;;;;;;5039970;28;20455;-89
2023/03/25 00:16:19;;;;;;;2.33;1.60;;;14.20;64.70;;;;;;5041121;28;20475;-89
2023/03/25 00:18:48;;;;;;;1.97;1.20;;;14.40;64.60;;;;;;5045165;28;20468;-90
2023/03/25 00:21:17;;;;;;;2.50;1.30;;;14.70;64.00;;;;;;5051478;28;20855;-90
2023/03/25 00:23:45;;;;;;;6.10;1.63;;;14.40;63.60;;;;;;5070778;28;20455;-89
2023/03/25 00:26:12;;;;;;;6.20;1.70;;;14.20;64.50;;;;;;5055696;28;20466;-88
2023/03/25 00:28:40;;;;;;;1.80;1.60;;;14.40;63.60;;;;;;5043552;28;20454;-89
2023/03/25 00:31:09;;;;;;;4.40;2.13;;;14.60;63.40;;;;;;5052694;28;20452;-89
2023/03/25 00:33:36;;;;;;;4.80;2.10;;;14.60;62.60;;;;;;5065624;28;20436;-90
2023/03/25 00:36:04;;;;;;;4.00;2.47;;;14.50;61.70;;;;;;5054104;28;20633;-89
2023/03/25 00:38:34;;;;;;;2.90;1.70;;;14.50;61.90;;;;;;5049994;28;21015;-89
2023/03/25 00:41:09;;;;;;;5.00;2.30;;;14.20;62.50;;;;;;5051737;28;20497;-88
2023/03/25 00:43:36;;;;;;;5.00;2.77;;;14.30;62.80;;;;;;5042921;28;20459;-88
2023/03/25 00:46:05;;;;;;;1.40;1.30;;;14.20;63.00;;;;;;5046240;28;20472;-89
2023/03/25 00:48:32;;;;;;;1.50;1.27;;;14.20;63.00;;;;;;5047460;28;20455;-88
2023/03/25 00:51:05;;;;;;;2.83;1.40;;;14.00;62.80;;;;;;5034190;28;20528;-89
2023/03/25 00:53:34;;;;;;;2.27;1.40;;;14.00;63.80;;;;;;5053092;28;20872;-88
2023/03/25 00:56:01;;;;;;;3.20;1.30;;;14.00;63.50;;;;;;5043166;28;20480;-87
2023/03/25 00:58:28;;;;;;;2.43;1.40;;;14.10;63.00;;;;;;5050950;28;20440;-87
2023/03/25 01:00:56;;;;;;;1.83;1.20;;;13.80;62.80;;;;;;5044229;28;20512;-89
2023/03/25 01:03:27;;;;;;;3.60;1.80;;;13.80;63.30;;;;;;5042676;28;20497;-88
2023/03/25 01:05:54;;;;;;;2.33;1.10;;;13.60;63.50;;;;;;5034491;28;20463;-88
2023/03/25 01:08:24;;;;;;;3.10;1.67;;;13.30;64.70;;;;;;5056805;28;20443;-89
2023/03/25 01:10:53;;;;;;;2.00;1.10;;;13.30;64.40;;;;;;5043370;28;20444;-89
2023/03/25 01:13:21;;;;;;;1.27;1.17;;;13.20;63.50;;;;;;5041511;28;20444;-88
2023/03/25 01:15:50;;;;;;;0.97;0.87;;;13.20;65.40;;;;;;5039511;28;20468;-88
2023/03/25 01:18:17;;;;;;;1.80;1.30;;;13.10;64.50;;;;;;5059114;28;20502;-88
2023/03/25 01:20:46;;;;;;;1.30;1.10;;;13.00;64.10;;;;;;5042239;28;20448;-88
2023/03/25 01:23:13;;;;;;;2.60;1.20;;;12.90;64.00;;;;;;5039948;28;20464;-88
2023/03/25 01:25:40;;;;;;;1.80;1.20;;;12.70;64.50;;;;;;5066278;28;20551;-88
2023/03/25 01:28:07;;;;;;;3.23;0.90;;;12.70;64.20;;;;;;5036532;28;20535;-88
2023/03/25 01:30:35;;;;;;;1.47;1.30;;;12.60;64.40;;;;;;5033759;28;20462;-88
2023/03/25 01:33:02;;;;;;;2.67;1.07;;;12.60;64.60;;;;;;5050239;28;20495;-87
2023/03/25 01:35:29;;;;;;;1.97;1.23;;;12.50;63.40;;;;;;5057463;28;20451;-87
2023/03/25 01:37:57;;;;;;;3.03;1.10;;;12.60;64.00;;;;;;5043024;28;20478;-86
2023/03/25 01:40:24;;;;;;;3.10;1.20;;;12.70;63.10;;;;;;5039875;28;21830;-89
2023/03/25 01:42:52;;;;;;;1.20;1.00;;;12.70;62.80;;;;;;5049200;28;20492;-87
2023/03/25 01:45:22;;;;;;;1.73;0.93;;;12.70;62.00;;;;;;5037758;28;20433;-87
2023/03/25 01:47:55;;;;;;;1.90;1.10;;;12.70;62.60;;;;;;5037233;28;20539;-88
2023/03/25 01:50:22;;;;;;;1.93;1.00;;;12.60;62.90;;;;;;5037262;28;20471;-86
2023/03/25 01:52:51;;;;;;;3.10;1.10;;;12.70;61.80;;;;;;5062732;28;20827;-88
2023/03/25 01:55:20;;;;;;;3.63;1.13;;;12.80;62.20;;;;;;5036178;28;20471;-88
2023/03/25 01:57:49;;;;;;;2.90;1.20;;;12.90;61.50;;;;;;5050607;28;20802;-88
2023/03/25 02:00:18;;;;;;;1.00;0.87;;;12.90;61.20;;;;;;5071101;28;20484;-87
2023/03/25 02:02:49;;;;;;;1.93;1.00;;;12.80;61.00;;;;;;5054856;28;20493;-88
2023/03/25 02:05:24;;;;;;;2.90;1.50;;;12.70;60.30;;;;;;5038591;28;20449;-87
2023/03/25 02:07:56;;;;;;;6.07;3.00;;;12.50;60.80;;;;;;5045275;28;20444;-88
2023/03/25 02:10:25;;;;;;;2.57;1.23;;;12.40;61.30;;;;;;5051849;28;20471;-88
2023/03/25 02:12:52;;;;;;;1.17;0.87;;;12.50;60.80;;;;;;5061068;28;20446;-87
2023/03/25 02:15:19;;;;;;;2.60;1.23;;;12.50;61.10;;;;;;5079494;28;20456;-87
2023/03/25 02:18:09;;;;;;;2.77;1.30;;;12.80;60.80;;;;;;5061603;28;20460;-88
2023/03/25 02:21:10;;;;;;;1.73;1.30;;;13.00;60.00;;;;;;5044078;28;20441;-87
2023/03/25 02:24:12;;;;;;;4.50;1.10;;;13.20;59.60;;;;;;5030840;28;20502;-87
2023/03/25 02:27:26;;;;;;;2.00;1.30;;;13.30;59.30;;;;;;5027585;28;20475;-87
2023/03/25 02:30:32;;;;;;;2.27;1.20;;;13.10;59.20;;;;;;5060881;28;20506;-87
2023/03/25 02:33:30;;;;;;;1.23;1.13;;;13.20;59.50;;;;;;5044518;28;20432;-87
2023/03/25 02:36:23;;;;;;;1.50;1.00;;;13.10;59.50;;;;;;5043170;28;20522;-87
2023/03/25 02:38:54;;;;;;;2.63;1.20;;;13.20;59.80;;;;;;5044276;28;20452;-87
2023/03/25 02:41:28;;;;;;;1.50;0.93;;;13.30;59.70;;;;;;5024110;28;20469;-88
2023/03/25 02:44:02;;;;;;;4.63;1.43;;;13.10;59.10;;;;;;5034949;28;20475;-87
2023/03/25 02:46:31;;;;;;;2.00;0.97;;;13.10;60.30;;;;;;5031985;28;20472;-87
2023/03/25 02:49:03;;;;;;;2.30;1.13;;;13.20;60.70;;;;;;5058791;28;20468;-87
2023/03/25 02:51:35;;;;;;;5.43;1.30;;;13.40;60.00;;;;;;5032329;28;20440;-88
2023/03/25 02:54:07;;;;;;;2.63;1.13;;;13.40;61.20;;;;;;5047073;28;20441;-88
2023/03/25 02:56:36;;;;;;;2.30;1.13;;;13.60;61.20;;;;;;5045241;28;20514;-87
2023/03/25 02:59:06;;;;;;;1.40;1.10;;;13.40;61.70;;;;;;5047901;28;20467;-88
2023/03/25 03:01:33;;;;;;;1.77;1.10;;;13.30;63.00;;;;;;5054091;28;21012;-89
2023/03/25 03:04:01;;;;;;;2.27;1.20;;;13.30;63.60;;;;;;5041584;28;20481;-89
2023/03/25 03:06:29;;;;;;;2.10;1.07;;;12.90;64.20;;;;;;5056136;28;20472;-88
2023/03/25 03:09:17;;;;;;;2.50;1.30;;;12.70;65.80;;;;;;5066348;28;20538;-88
2023/03/25 03:11:57;;;;;;;0.80;0.67;;;12.30;64.70;;;;;;5048903;28;20445;-88
2023/03/25 03:14:52;;;;;;;3.77;1.03;;;12.10;65.60;;;;;;5036191;28;20451;-89
2023/03/25 03:17:25;;;;;;;1.37;0.80;;;11.80;66.50;;;;;;5036426;28;20455;-86
2023/03/25 03:19:55;;;;;;;0.90;0.70;;;11.60;66.10;;;;;;5038549;28;20535;-87
2023/03/25 03:22:35;;;;;;;0.70;0.50;;;11.40;66.60;;;;;;5037988;28;20491;-89
2023/03/25 03:25:09;;;;;;;0.80;0.60;;;11.40;66.00;;;;;;5040965;28;20480;-91
2023/03/25 03:27:40;;;;;;;1.50;1.40;;;11.30;65.80;;;;;;5037158;28;20507;-89
2023/03/25 03:30:13;;;;;;;1.37;0.70;;;11.30;65.90;;;;;;5072754;28;20832;-89
2023/03/25 03:32:47;;;;;;;0.90;0.80;;;11.30;65.30;;;;;;5040571;28;20456;-91
2023/03/25 03:35:19;;;;;;;1.10;0.73;;;11.40;65.50;;;;;;5065103;28;20663;-86
2023/03/25 03:37:55;;;;;;;0.90;0.70;;;11.50;65.40;;;;;;5034268;28;20469;-88
2023/03/25 03:40:27;;;;;;;0.80;0.60;;;11.60;64.90;;;;;;5067965;28;20445;-88
2023/03/25 03:42:57;;;;;;;0.80;0.60;;;11.50;64.50;;;;;;5044187;28;20539;-89
2023/03/25 03:45:29;;;;;;;1.63;0.70;;;11.50;64.50;;;;;;5045683;28;20441;-91
2023/03/25 03:48:00;;;;;;;0.80;0.63;;;11.50;64.00;;;;;;5041882;28;20542;-88
2023/03/25 03:50:32;;;;;;;0.90;0.60;;;11.50;64.50;;;;;;5042594;28;20449;-88
2023/03/25 03:53:06;;;;;;;1.00;0.70;;;11.60;63.80;;;;;;5072787;28;20448;-89
2023/03/25 03:55:40;;;;;;;0.80;0.70;;;11.80;63.60;;;;;;5053610;28;20887;-87
2023/03/25 03:58:14;;;;;;;0.70;0.53;;;11.80;62.70;;;;;;5060484;28;20521;-87
2023/03/25 04:00:48;;;;;;;1.10;0.80;;;11.70;62.90;;;;;;5053696;28;20490;-88
2023/03/25 04:03:22;;;;;;;3.73;0.80;;;11.40;63.60;;;;;;5052975;28;20477;-90
2023/03/25 04:05:54;;;;;;;1.80;0.80;;;11.40;63.70;;;;;;5039159;28;20535;-88
2023/03/25 04:08:28;;;;;;;1.43;0.90;;;11.50;63.40;;;;;;5045363;28;20447;-88
2023/03/25 04:11:02;;;;;;;0.90;0.80;;;11.60;63.40;;;;;;5037664;28;20459;-88
2023/03/25 04:13:33;;;;;;;1.03;0.73;;;11.60;62.60;;;;;;5075238;28;20490;-87
2023/03/25 04:16:00;;;;;;;0.87;0.60;;;11.50;62.70;;;;;;5044334;28;20482;-88
2023/03/25 04:18:27;;;;;;;5.13;1.00;;;11.60;63.50;;;;;;5058664;28;21047;-89
2023/03/25 04:20:54;;;;;;;0.90;0.70;;;11.80;62.70;;;;;;5041889;28;20437;-88
2023/03/25 04:23:22;;;;;;;4.37;0.90;;;11.80;62.10;;;;;;5041637;28;20478;-88
2023/03/25 04:25:51;;;;;;;2.23;1.00;;;11.70;62.50;;;;;;5060117;28;20471;-88
2023/03/25 04:28:20;;;;;;;1.43;0.97;;;11.60;62.20;;;;;;5057775;28;20451;-89
2023/03/25 04:30:49;;;;;;;0.90;0.80;;;11.50;62.70;;;;;;5051991;28;20456;-86
2023/03/25 04:33:16;;;;;;;1.10;0.80;;;11.60;63.00;;;;;;5042620;28;21204;-91
2023/03/25 04:35:43;;;;;;;1.70;0.80;;;11.80;63.40;;;;;;5056069;28;20444;-88
2023/03/25 04:38:10;;;;;;;4.10;1.00;;;11.80;61.70;;;;;;5068083;28;20440;-87
2023/03/25 04:40:39;;;;;;;2.67;1.00;;;11.80;61.60;;;;;;5040086;28;20805;-87
2023/03/25 04:43:06;;;;;;;2.57;1.17;;;11.80;61.90;;;;;;5063556;28;20463;-88
2023/03/25 04:45:35;;;;;;;1.67;1.27;;;11.90;62.30;;;;;;5041060;28;20534;-88
2023/03/25 04:48:04;;;;;;;1.20;0.90;;;11.80;62.10;;;;;;5048959;28;20459;-88
2023/03/25 04:50:32;;;;;;;1.27;0.80;;;11.70;62.00;;;;;;5039942;28;20976;-88
2023/03/25 04:53:00;;;;;;;1.10;1.00;;;12.00;61.70;;;;;;5042061;28;20455;-87
2023/03/25 04:55:28;;;;;;;1.17;0.80;;;12.10;61.20;;;;;;5037408;28;20479;-87
2023/03/25 04:57:55;;;;;;;5.33;1.17;;;12.10;59.90;;;;;;5034354;28;20447;-87
2023/03/25 05:00:24;;;;;;;2.13;1.00;;;12.20;60.80;;;;;;5053340;28;20448;-87
2023/03/25 05:02:54;;;;;;;1.63;0.97;;;12.10;60.00;;;;;;5054385;28;20470;-87
2023/03/25 05:05:23;;;;;;;1.50;0.80;;;11.80;60.50;;;;;;5036795;28;20448;-90
2023/03/25 05:07:52;;;;;;;1.60;1.00;;;11.80;60.80;;;;;;5051394;28;20480;-88
2023/03/25 05:10:21;;;;;;;1.93;0.80;;;11.50;59.50;;;;;;5064254;28;20467;-87
2023/03/25 05:12:49;;;;;;;2.60;0.80;;;11.40;61.60;;;;;;5042132;28;20463;-86
2023/03/25 05:15:17;;;;;;;1.30;1.00;;;11.70;60.40;;;;;;5057748;28;20455;-88
2023/03/25 05:17:44;;;;;;;2.13;0.80;;;11.70;59.80;;;;;;5064936;28;20472;-89
2023/03/25 05:20:15;;;;;;;1.37;1.10;;;11.60;60.90;;;;;;5050062;28;20448;-86
2023/03/25 05:22:44;;;;;;;1.40;0.90;;;11.50;60.80;;;;;;5039606;28;20444;-87
2023/03/25 05:25:11;;;;;;;1.83;0.90;;;11.60;59.50;;;;;;5039363;28;20468;-88
2023/03/25 05:27:38;;;;;;;0.87;0.80;;;11.70;60.50;;;;;;5057217;28;20566;-88
2023/03/25 05:30:07;;;;;;;4.00;0.97;;;11.80;60.00;;;;;;5051930;28;20810;-88
2023/03/25 05:32:34;;;;;;;4.10;1.00;;;12.00;59.70;;;;;;5077751;28;20461;-88
2023/03/25 05:35:02;;;;;;;1.63;0.77;;;11.90;58.40;;;;;;5055102;28;20440;-87
2023/03/25 05:37:30;;;;;;;1.10;0.90;;;11.90;59.00;;;;;;5066178;28;20563;-87
2023/03/25 05:39:58;;;;;;;4.17;1.10;;;12.00;59.40;;;;;;5037050;28;20460;-87
2023/03/25 05:42:25;;;;;;;3.90;1.20;;;11.80;58.60;;;;;;5032833;28;20456;-87
2023/03/25 05:44:53;;;;;;;4.73;1.50;;;11.80;59.90;;;;;;5054631;28;20480;-88
2023/03/25 05:47:22;;;;;;;3.33;1.60;;;11.80;60.40;;;;;;5048272;28;20478;-89
2023/03/25 05:49:49;;;;;;;5.50;1.10;;;12.00;60.10;;;;;;5031922;28;20452;-87
2023/03/25 05:52:16;;;;;;;2.30;1.10;;;11.90;59.30;;;;;;5053933;28;20452;-87
2023/03/25 05:54:50;;;;;;;3.40;1.20;;;11.80;60.00;;;;;;5066643;28;20440;-87
2023/03/25 05:57:17;;;;;;;1.40;1.17;;;11.70;60.90;;;;;;5035304;28;20542;-90
2023/03/25 05:59:44;;;;;;;1.77;1.13;;;11.70;60.40;;;;;;5053090;28;20458;-87
2023/03/25 06:02:14;;;;;;;3.20;0.90;;;11.90;60.10;;;;;;5079626;28;20445;-87
2023/03/25 06:04:41;;;;;;;1.67;1.13;;;11.90;59.90;;;;;;5047184;28;20460;-87
2023/03/25 06:07:12;;;;;;;1.67;1.20;;;12.00;60.80;;;;;;5039726;28;20846;-84
2023/03/25 06:09:44;;;;;;;1.93;1.00;;;11.90;60.90;;;;;;5051443;28;20440;-85
2023/03/25 06:12:14;;;;;;;1.43;1.00;;;11.90;60.90;;;;;;5034615;28;20787;-85
2023/03/25 06:14:44;;;;;;;2.80;1.30;;;12.10;61.40;;;;;;5035392;28;20445;-87
2023/03/25 06:17:11;;;;;;;4.07;1.10;;;12.20;60.90;;;;;;5034249;28;20981;-87
2023/03/25 06:19:41;;;;;;;2.83;1.17;;;12.30;60.70;;;;;;5051045;28;20445;-87
2023/03/25 06:22:09;;;;;;;1.90;1.00;;;12.40;60.20;;;;;;5037887;28;20449;-87
2023/03/25 06:24:36;;;;;;;3.47;0.90;;;12.60;60.00;;;;;;5078749;28;20464;-87
2023/03/25 06:27:05;;;;;;;1.53;0.80;;;12.20;59.50;;;;;;5045266;28;20480;-87
2023/03/25 06:29:35;;;;;;;1.70;1.00;;;12.30;60.80;;;;;;5066859;28;20465;-87
2023/03/25 06:32:02;;;;;;;4.07;1.40;;;12.30;60.90;;;;;;5045453;28;20486;-90
2023/03/25 06:34:31;;;;;;;2.27;1.00;;;12.00;62.00;;;;;;5028437;28;20447;-87
2023/03/25 06:36:58;;;;;;;7.77;1.33;;;12.00;61.40;;;;;;5029722;28;20464;-87
2023/03/25 06:39:25;;;;;;;7.73;1.30;;;12.10;62.50;;;;;;5045504;28;20497;-87
2023/03/25 06:41:54;;;;;;;1.97;1.10;;;12.30;62.70;;;;;;5029849;28;20456;-87
2023/03/25 06:44:28;;;;;;;3.57;1.23;;;12.30;62.40;;;;;;5036966;28;20492;-87
2023/03/25 06:47:15;;;;;;;2.10;1.13;;;12.30;62.40;;;;;;5052463;28;20541;-87
2023/03/25 06:49:44;;;;;;;2.47;1.17;;;12.40;61.80;;;;;;5035229;28;20487;-87
2023/03/25 06:52:11;;;;;;;1.93;1.27;;;12.30;62.00;;;;;;5069509;28;20471;-87
2023/03/25 06:54:39;;;;;;;2.73;1.40;;;12.40;62.40;;;;;;5035741;28;20455;-87
2023/03/25 06:57:06;;;;;;;1.63;1.00;;;12.50;61.40;;;;;;5071134;28;20478;-87
2023/03/25 06:59:33;;;;;;;3.30;1.10;;;12.50;60.80;;;;;;5032799;28;20464;-87
2023/03/25 07:02:00;;;;;;;2.83;1.10;;;12.70;59.90;;;;;;5034510;28;20457;-87
2023/03/25 07:04:28;;;;;;;1.73;1.40;;;12.60;59.60;;;;;;5045940;28;21029;-88
2023/03/25 07:06:55;;;;;;;3.13;1.00;;;12.50;60.20;;;;;;5044500;28;20456;-87
2023/03/25 07:09:22;;;;;;;2.23;1.17;;;12.70;60.20;;;;;;5042645;28;20440;-88
2023/03/25 07:11:49;;;;;;;4.43;1.37;;;12.90;60.00;;;;;;5033843;28;20530;-87
2023/03/25 07:14:17;;;;;;;1.10;0.90;;;13.00;58.50;;;;;;5046574;28;20455;-87
2023/03/25 07:16:44;;;;;;;2.90;1.40;;;12.90;58.30;;;;;;5036050;28;20585;-87
2023/03/25 07:19:11;;;;;;;2.37;1.37;;;12.80;58.70;;;;;;5063008;28;20478;-86
2023/03/25 07:21:39;;;;;;;2.33;1.33;;;12.80;59.10;;;;;;5059795;28;20465;-86
2023/03/25 07:24:07;;;;;;;4.20;1.00;;;12.40;59.00;;;;;;5034517;28;20468;-86
2023/03/25 07:26:34;;;;;;;6.77;1.97;;;11.90;59.70;;;;;;5049567;28;20459;-87
2023/03/25 07:29:02;;;;;;;5.43;2.87;;;11.80;61.90;;;;;;5049220;28;20440;-85
2023/03/25 07:31:29;;;;;;;2.50;2.13;;;11.90;61.60;;;;;;5059563;28;20455;-85
2023/03/25 07:33:58;;;;;;;43.50;21.13;;;12.00;61.60;;;;;;5057787;28;20480;-85
2023/03/25 07:36:25;;;;;;;20.47;13.33;;;12.20;61.40;;;;;;5043259;28;20467;-85
2023/03/25 07:38:54;;;;;;;35.77;15.90;;;12.40;60.70;;;;;;5064690;28;20508;-87
2023/03/25 07:41:21;;;;;;;7.07;4.60;;;12.40;60.30;;;;;;5063057;28;20498;-86
2023/03/25 07:44:04;;;;;;;3.40;1.83;;;12.40;60.40;;;;;;5050152;28;20522;-85
2023/03/25 07:46:32;;;;;;;9.63;7.27;;;12.50;61.10;;;;;;5025851;28;21053;-86
2023/03/25 07:48:59;;;;;;;5.13;2.33;;;12.70;60.40;;;;;;5035091;28;20466;-86
2023/03/25 07:51:26;;;;;;;6.70;2.70;;;12.90;59.80;;;;;;5026455;28;20974;-86
2023/03/25 07:53:54;;;;;;;7.13;1.80;;;12.90;59.30;;;;;;5045151;28;20436;-86
2023/03/25 07:56:21;;;;;;;3.10;1.80;;;12.80;58.80;;;;;;5044086;28;20913;-86
2023/03/25 07:58:48;;;;;;;8.63;2.03;;;12.80;58.30;;;;;;5042877;28;20449;-87
2023/03/25 08:01:15;;;;;;;2.00;1.77;;;12.70;58.70;;;;;;5024236;28;20994;-85
2023/03/25 08:03:42;;;;;;;2.10;1.60;;;12.60;58.50;;;;;;5051234;28;20459;-85
2023/03/25 08:06:09;;;;;;;2.47;2.13;;;12.70;59.20;;;;;;5072291;28;20471;-86
2023/03/25 08:08:36;;;;;;;4.30;1.57;;;12.60;59.00;;;;;;5041297;28;20523;-85
2023/03/25 08:11:05;;;;;;;3.60;1.37;;;12.70;58.80;;;;;;5041099;28;20460;-86
2023/03/25 08:13:32;;;;;;;1.63;1.17;;;12.80;58.50;;;;;;5038443;28;20465;-86
2023/03/25 08:15:59;;;;;;;3.53;1.33;;;12.90;59.00;;;;;;5060362;28;20455;-86
2023/03/25 08:18:26;;;;;;;1.40;1.20;;;13.10;58.90;;;;;;5026298;28;20501;-86
2023/03/25 08:20:54;;;;;;;7.17;1.80;;;13.10;57.70;;;;;;5044079;28;20443;-86
2023/03/25 08:23:22;;;;;;;6.07;1.63;;;13.00;58.90;;;;;;5055514;28;21134;-85
2023/03/25 08:25:50;;;;;;;2.70;1.23;;;13.20;58.00;;;;;;5052730;28;20471;-86
2023/03/25 08:28:21;;;;;;;5.63;1.23;;;13.20;59.20;;;;;;5058273;28;20500;-86
2023/03/25 08:30:48;;;;;;;2.90;1.63;;;13.30;57.50;;;;;;5062056;28;21297;-85
2023/03/25 08:33:17;;;;;;;4.57;1.60;;;13.20;57.40;;;;;;5054554;28;20435;-86
2023/03/25 08:35:44;;;;;;;5.53;1.57;;;13.20;56.50;;;;;;5023405;28;21045;-86
2023/03/25 08:38:11;;;;;;;8.00;2.57;;;13.20;57.10;;;;;;5046240;28;20517;-86
2023/03/25 08:40:38;;;;;;;5.27;2.93;;;13.40;56.50;;;;;;5053710;28;20950;-85
2023/03/25 08:43:06;;;;;;;7.17;1.80;;;13.70;56.10;;;;;;5056563;28;20444;-86
2023/03/25 08:45:35;;;;;;;7.23;1.70;;;13.60;55.60;;;;;;5046285;28;20499;-86
2023/03/25 08:48:02;;;;;;;7.73;2.00;;;13.60;55.40;;;;;;5045808;28;20953;-86
2023/03/25 08:50:30;;;;;;;7.73;2.93;;;13.60;54.20;;;;;;5040339;28;20459;-86
2023/03/25 08:52:59;;;;;;;3.70;1.93;;;13.80;54.90;;;;;;5042861;28;20452;-85
2023/03/25 08:55:26;;;;;;;4.20;1.40;;;14.00;55.40;;;;;;5028227;28;20441;-85
2023/03/25 08:57:53;;;;;;;3.33;1.50;;;14.00;52.80;;;;;;5041023;28;20546;-86
2023/03/25 09:00:23;;;;;;;4.20;1.70;;;14.20;54.40;;;;;;5027525;28;20452;-86
2023/03/25 09:02:51;;;;;;;7.73;1.90;;;14.10;53.60;;;;;;5039531;28;20504;-86
2023/03/25 09:05:18;;;;;;;4.97;1.70;;;14.10;52.10;;;;;;5036856;28;20463;-86
2023/03/25 09:07:46;;;;;;;4.27;1.50;;;14.30;52.80;;;;;;5045741;28;21012;-86
2023/03/25 09:10:13;;;;;;;6.13;3.10;;;14.30;53.40;;;;;;5037854;28;20458;-86
2023/03/25 09:12:40;;;;;;;4.43;1.90;;;14.10;52.00;;;;;;5054047;28;20462;-85
2023/03/25 09:15:09;;;;;;;9.00;2.07;;;14.20;53.10;;;;;;5044539;28;20460;-86
2023/03/25 09:17:36;;;;;;;6.30;1.53;;;14.30;52.30;;;;;;5027004;28;20843;-86
2023/03/25 09:20:07;;;;;;;6.67;1.70;;;14.10;51.60;;;;;;5066624;28;20457;-86
2023/03/25 09:22:34;;;;;;;3.97;1.50;;;14.00;51.90;;;;;;5049433;28;20456;-85
2023/03/25 09:25:01;;;;;;;4.13;1.50;;;14.10;53.10;;;;;;5052336;28;20475;-86
2023/03/25 09:27:28;;;;;;;6.00;1.90;;;14.20;53.00;;;;;;5038571;28;20995;-85
2023/03/25 09:29:55;;;;;;;7.30;1.50;;;14.30;53.60;;;;;;5052438;28;20441;-86
2023/03/25 09:32:22;;;;;;;5.03;1.30;;;14.30;53.40;;;;;;5043128;28;20981;-85
2023/03/25 09:34:49;;;;;;;5.70;1.57;;;14.00;52.40;;;;;;5040852;28;20535;-85
2023/03/25 09:37:18;;;;;;;5.77;1.60;;;14.20;52.80;;;;;;5027334;28;20973;-85
2023/03/25 09:39:45;;;;;;;3.63;1.20;;;14.50;53.70;;;;;;5037959;28;20467;-85
2023/03/25 09:42:29;;;;;;;3.90;1.30;;;14.80;52.60;;;;;;5037312;28;20451;-85
2023/03/25 09:45:01;;;;;;;3.67;1.43;;;14.90;51.10;;;;;;5052250;28;20503;-85
2023/03/25 09:47:32;;;;;;;5.83;1.20;;;14.90;51.30;;;;;;5070978;28;20800;-85
2023/03/25 09:50:02;;;;;;;1.83;1.23;;;15.20;51.60;;;;;;5039940;28;20457;-86
2023/03/25 09:52:36;;;;;;;4.10;2.13;;;15.40;50.30;;;;;;5039940;28;20448;-85
2023/03/25 09:55:07;;;;;;;3.60;1.93;;;15.30;50.60;;;;;;5053372;28;20486;-86
2023/03/25 09:57:48;;;;;;;2.23;1.50;;;15.10;50.00;;;;;;5062405;28;20578;-85
2023/03/25 10:00:19;;;;;;;1.80;1.37;;;15.10;51.10;;;;;;5040351;28;20443;-86
2023/03/25 10:02:53;;;;;;;2.87;1.13;;;15.10;53.70;;;;;;5040816;28;20445;-86
2023/03/25 10:05:36;;;;;;;5.27;1.63;;;14.90;53.40;;;;;;5046254;28;20467;-89
2023/03/25 10:08:13;;;;;;;3.00;1.20;;;14.60;55.70;;;;;;5040525;28;20988;-87
2023/03/25 10:10:47;;;;;;;3.10;1.30;;;14.60;56.20;;;;;;5069980;28;20447;-86
2023/03/25 10:13:21;;;;;;;6.07;1.47;;;14.10;57.00;;;;;;5040966;28;20452;-87
2023/03/25 10:15:56;;;;;;;11.83;2.10;;;13.80;58.90;;;;;;5041610;28;20512;-87
2023/03/25 10:18:44;;;;;;;3.47;1.17;;;13.50;60.50;;;;;;5044054;28;20662;-87
2023/03/25 10:21:18;;;;;;;3.70;1.40;;;13.60;61.80;;;;;;5053675;28;20471;-86
2023/03/25 10:23:55;;;;;;;4.33;2.00;;;13.60;61.90;;;;;;5040803;28;20453;-85
2023/03/25 10:26:27;;;;;;;4.20;1.50;;;14.00;61.40;;;;;;5036866;28;21087;-85
2023/03/25 10:28:58;;;;;;;4.10;1.37;;;14.20;61.50;;;;;;5073361;28;20450;-85
2023/03/25 10:31:29;;;;;;;4.90;2.37;;;14.40;60.40;;;;;;5045234;28;20443;-85
2023/03/25 10:33:59;;;;;;;3.90;1.30;;;14.50;59.30;;;;;;5022951;28;20456;-85
2023/03/25 10:36:32;;;;;;;5.60;1.40;;;14.70;58.80;;;;;;5072827;28;20492;-85
2023/03/25 10:39:02;;;;;;;2.87;1.30;;;14.80;58.80;;;;;;5027222;28;20449;-84
2023/03/25 10:41:35;;;;;;;5.97;1.93;;;14.90;58.90;;;;;;5037057;28;21018;-85
2023/03/25 10:44:09;;;;;;;7.20;1.87;;;14.80;59.70;;;;;;5055485;28;20914;-85
2023/03/25 10:46:46;;;;;;;5.50;1.77;;;14.70;59.20;;;;;;5040126;28;20483;-86
2023/03/25 10:49:15;;;;;;;3.67;1.63;;;14.20;60.00;;;;;;5051763;28;20833;-83
2023/03/25 10:51:42;;;;;;;2.50;1.70;;;14.00;60.00;;;;;;5043609;28;20460;-85
2023/03/25 10:54:13;;;;;;;4.73;2.40;;;14.20;60.40;;;;;;5055968;28;20459;-85
2023/03/25 10:56:45;;;;;;;13.60;7.90;;;14.30;61.00;;;;;;5027623;28;20456;-84
2023/03/25 10:59:20;;;;;;;5.10;4.40;;;14.50;60.40;;;;;;5059914;28;20464;-88
2023/03/25 11:01:48;;;;;;;3.10;1.70;;;14.50;58.70;;;;;;5052765;28;20447;-88
2023/03/25 11:04:19;;;;;;;6.80;1.87;;;14.50;60.50;;;;;;5068459;28;20453;-89
2023/03/25 11:06:56;;;;;;;7.33;2.17;;;14.50;57.60;;;;;;5057367;28;20491;-91
2023/03/25 11:09:27;;;;;;;1.80;1.33;;;14.40;60.50;;;;;;5047943;28;20444;-87
2023/03/25 11:11:54;;;;;;;4.20;1.80;;;14.40;58.30;;;;;;5041023;28;20444;-86
2023/03/25 11:14:23;;;;;;;2.03;1.60;;;14.20;58.10;;;;;;5042533;28;20455;-85
2023/03/25 11:16:56;;;;;;;5.03;2.30;;;14.00;57.10;;;;;;5064466;28;20459;-84
2023/03/25 11:19:27;;;;;;;1.97;1.30;;;13.50;59.50;;;;;;5044469;28;20444;-86
2023/03/25 11:21:57;;;;;;;2.60;1.30;;;13.40;61.60;;;;;;5039912;28;20969;-86
2023/03/25 11:24:32;;;;;;;1.53;1.27;;;13.40;61.70;;;;;;5047506;28;20818;-85
2023/03/25 11:27:00;;;;;;;3.23;1.70;;;13.50;61.40;;;;;;5045533;28;20463;-85
2023/03/25 11:29:29;;;;;;;2.53;2.33;;;13.50;58.40;;;;;;5053781;28;20459;-85
2023/03/25 11:32:04;;;;;;;2.90;1.70;;;13.30;57.10;;;;;;5044089;28;20681;-85
2023/03/25 11:34:32;;;;;;;1.50;1.17;;;13.40;58.20;;;;;;5051907;28;20527;-85
2023/03/25 11:37:03;;;;;;;1.90;1.00;;;13.70;59.20;;;;;;5038493;28;20460;-84
2023/03/25 11:39:35;;;;;;;3.40;1.60;;;14.00;60.20;;;;;;5037910;28;20984;-85
2023/03/25 11:42:13;;;;;;;2.37;1.03;;;14.10;58.40;;;;;;5052277;28;20455;-84
2023/03/25 11:44:41;;;;;;;5.03;1.37;;;14.50;59.30;;;;;;5037748;28;20475;-85
2023/03/25 11:47:10;;;;;;;1.20;1.10;;;14.40;58.50;;;;;;5042571;28;21218;-85
2023/03/25 11:49:40;;;;;;;2.50;1.40;;;14.40;58.00;;;;;;5036583;28;20479;-84
2023/03/25 11:52:12;;;;;;;3.43;1.37;;;14.70;60.70;;;;;;5067934;28;20449;-85
2023/03/25 11:54:42;;;;;;;3.93;1.60;;;14.70;58.30;;;;;;5038588;28;20868;-85
2023/03/25 11:57:15;;;;;;;2.80;1.30;;;14.70;59.60;;;;;;5070255;28;20478;-86
2023/03/25 11:59:45;;;;;;;3.10;1.23;;;14.80;58.60;;;;;;5025454;28;20846;-86
2023/03/25 12:02:23;;;;;;;3.27;1.10;;;14.80;58.80;;;;;;5025772;28;20444;-86
2023/03/25 12:04:57;;;;;;;4.10;1.40;;;14.90;58.90;;;;;;5057568;28;20454;-85
2023/03/25 12:07:24;;;;;;;3.73;1.77;;;15.10;59.20;;;;;;5046344;28;20483;-85
2023/03/25 12:09:56;;;;;;;4.40;1.33;;;14.80;58.40;;;;;;5069727;28;20459;-85
2023/03/25 12:12:38;;;;;;;2.40;1.30;;;14.40;60.00;;;;;;5059758;28;20946;-86
2023/03/25 12:15:21;;;;;;;3.43;1.30;;;14.00;60.70;;;;;;5039185;28;20458;-85
2023/03/25 12:18:00;;;;;;;2.23;1.30;;;13.60;60.80;;;;;;5065984;28;20469;-85
2023/03/25 12:20:31;;;;;;;1.03;0.93;;;13.20;61.80;;;;;;5028259;28;20546;-85
2023/03/25 12:23:02;;;;;;;1.47;1.00;;;13.00;62.70;;;;;;5071133;28;20444;-85
2023/03/25 12:25:39;;;;;;;1.83;0.80;;;12.80;63.10;;;;;;5053999;28;20518;-85
2023/03/25 12:28:23;;;;;;;1.37;1.20;;;13.10;63.20;;;;;;5071865;28;20448;-86
2023/03/25 12:31:00;;;;;;;1.10;0.80;;;13.20;63.10;;;;;;5052342;28;20455;-86
2023/03/25 12:33:43;;;;;;;0.90;0.73;;;13.40;63.20;;;;;;5061662;28;20494;-85
2023/03/25 12:36:20;;;;;;;2.33;0.83;;;13.70;62.00;;;;;;5043329;28;20456;-85
2023/03/25 12:38:59;;;;;;;2.07;1.13;;;14.20;61.10;;;;;;5033312;28;20444;-85
2023/03/25 12:41:35;;;;;;;3.40;1.10;;;14.40;58.00;;;;;;5033836;28;20540;-85
2023/03/25 12:44:07;;;;;;;1.20;0.93;;;14.40;59.80;;;;;;5033119;28;20441;-86
2023/03/25 12:47:02;;;;;;;3.73;2.70;;;14.70;58.80;;;;;;5066105;28;20494;-87
2023/03/25 12:49:49;;;;;;;1.20;1.10;;;14.90;57.90;;;;;;5035255;28;20837;-86
2023/03/25 12:52:24;;;;;;;3.33;3.03;;;15.20;57.90;;;;;;5074296;28;20643;-86
2023/03/25 12:55:03;;;;;;;2.53;0.77;;;15.30;57.20;;;;;;5028476;28;20447;-86
2023/03/25 12:57:48;;;;;;;1.30;1.20;;;15.20;56.20;;;;;;5043790;28;20485;-85
2023/03/25 13:00:25;;;;;;;0.80;0.80;;;15.20;56.90;;;;;;5031709;28;20448;-84
2023/03/25 13:03:15;;;;;;;1.03;0.67;;;15.30;57.30;;;;;;5074087;28;20435;-86
2023/03/25 13:05:50;;;;;;;1.20;0.80;;;15.90;57.10;;;;;;5034096;28;20843;-86